Time;durP1;ratioP1;P1;durP2;ratioP2;P2;SDS_P1;SDS_P2;PMS_P1;PMS_P2;Temp;Humidity;BMP_temperature;BMP_pressure;BME280_temperature;BME280_humidity;BME280_pressure;Samples;Min_cycle;Max_cycle;Signal;HPM_P1;HPM_P2
2022/05/13 00:01:50;;;;;;;5.60;3.10;;;;;;;;;;5022578;28;20040;-59
2022/05/13 00:04:16;;;;;;;6.45;3.03;;;;;;;;;;5009805;28;20121;-60
2022/05/13 00:06:42;;;;;;;8.15;2.92;;;;;;;;;;5024919;28;20041;-60
2022/05/13 00:09:08;;;;;;;7.07;3.05;;;;;;;;;;5013123;28;20045;-60
2022/05/13 00:11:34;;;;;;;10.00;3.28;;;;;;;;;;5008274;28;20038;-60
2022/05/13 00:14:00;;;;;;;5.53;3.10;;;;;;;;;;5004626;28;20037;-60
2022/05/13 00:16:26;;;;;;;6.60;3.30;;;;;;;;;;5014546;28;20042;-60
2022/05/13 00:18:52;;;;;;;4.97;3.13;;;;;;;;;;5021797;28;20079;-60
2022/05/13 00:21:18;;;;;;;6.07;3.28;;;;;;;;;;5020600;28;20412;-60
2022/05/13 00:23:44;;;;;;;6.25;3.17;;;;;;;;;;5009710;28;20034;-60
2022/05/13 00:26:10;;;;;;;6.97;3.00;;;;;;;;;;5011015;28;20424;-60
2022/05/13 00:28:36;;;;;;;6.07;3.10;;;;;;;;;;5014841;28;20048;-60
2022/05/13 00:31:04;;;;;;;4.85;2.80;;;;;;;;;;5023036;28;20033;-60
2022/05/13 00:33:31;;;;;;;7.38;3.15;;;;;;;;;;5014093;28;20124;-60
2022/05/13 00:35:57;;;;;;;5.65;2.95;;;;;;;;;;5014354;28;20057;-60
2022/05/13 00:38:25;;;;;;;6.97;3.00;;;;;;;;;;5013368;28;20483;-60
2022/05/13 00:40:51;;;;;;;8.35;3.08;;;;;;;;;;5020565;28;20099;-60
2022/05/13 00:43:36;;;;;;;5.38;3.00;;;;;;;;;;5007893;28;20049;-60
2022/05/13 00:46:03;;;;;;;5.72;2.70;;;;;;;;;;5016068;28;20498;-60
2022/05/13 00:48:29;;;;;;;5.00;2.60;;;;;;;;;;5018392;28;20045;-60
2022/05/13 00:50:56;;;;;;;6.25;2.90;;;;;;;;;;5000536;28;20095;-60
2022/05/13 00:53:22;;;;;;;7.20;3.10;;;;;;;;;;5018989;28;20085;-60
2022/05/13 00:55:49;;;;;;;7.88;2.60;;;;;;;;;;5010222;28;20029;-60
2022/05/13 00:58:17;;;;;;;4.07;2.72;;;;;;;;;;5012444;28;20445;-60
2022/05/13 01:00:43;;;;;;;4.40;2.90;;;;;;;;;;5015436;28;20045;-60
2022/05/13 01:03:11;;;;;;;7.30;2.83;;;;;;;;;;5015567;28;20045;-59
2022/05/13 01:05:37;;;;;;;4.18;2.40;;;;;;;;;;5010929;28;20034;-60
2022/05/13 01:08:06;;;;;;;4.38;2.90;;;;;;;;;;5010120;28;20440;-59
2022/05/13 01:10:33;;;;;;;6.50;2.33;;;;;;;;;;5021597;28;20034;-59
2022/05/13 01:13:00;;;;;;;5.82;2.50;;;;;;;;;;5014431;28;20076;-59
2022/05/13 01:15:29;;;;;;;5.63;2.33;;;;;;;;;;5022593;28;20050;-60
2022/05/13 01:18:07;;;;;;;3.55;2.25;;;;;;;;;;5015366;28;20034;-59
2022/05/13 01:20:42;;;;;;;9.27;2.70;;;;;;;;;;5022610;28;20155;-59
2022/05/13 01:23:15;;;;;;;5.35;2.60;;;;;;;;;;5020463;28;20058;-59
2022/05/13 01:25:44;;;;;;;6.50;2.25;;;;;;;;;;5030826;28;20075;-60
2022/05/13 01:28:12;;;;;;;7.10;2.30;;;;;;;;;;5018658;28;20041;-59
2022/05/13 01:30:39;;;;;;;5.22;2.60;;;;;;;;;;5013112;28;20124;-59
2022/05/13 01:33:06;;;;;;;5.90;2.33;;;;;;;;;;5022211;28;20057;-59
2022/05/13 01:35:31;;;;;;;7.20;2.35;;;;;;;;;;5016277;28;20049;-59
2022/05/13 01:37:57;;;;;;;5.85;2.60;;;;;;;;;;5015634;28;20033;-59
2022/05/13 01:40:23;;;;;;;6.63;2.40;;;;;;;;;;5028008;28;20040;-60
2022/05/13 01:42:49;;;;;;;5.57;2.45;;;;;;;;;;5005190;28;20045;-59
2022/05/13 01:45:15;;;;;;;4.00;2.30;;;;;;;;;;5017935;28;20037;-60
2022/05/13 01:47:41;;;;;;;6.00;2.38;;;;;;;;;;5028845;28;20037;-60
2022/05/13 01:50:09;;;;;;;10.30;2.47;;;;;;;;;;5020028;28;20073;-60
2022/05/13 01:52:35;;;;;;;9.20;2.55;;;;;;;;;;5021346;28;20398;-60
2022/05/13 01:55:01;;;;;;;7.13;2.40;;;;;;;;;;5021994;28;20042;-60
2022/05/13 01:57:27;;;;;;;6.15;2.38;;;;;;;;;;5020484;28;20037;-60
2022/05/13 01:59:54;;;;;;;5.15;2.30;;;;;;;;;;5030249;28;20061;-60
2022/05/13 02:02:20;;;;;;;5.80;2.50;;;;;;;;;;5014785;28;20084;-59
2022/05/13 02:04:46;;;;;;;6.72;2.70;;;;;;;;;;5017278;28;20458;-60
2022/05/13 02:07:12;;;;;;;5.47;2.78;;;;;;;;;;5014552;28;20045;-60
2022/05/13 02:09:38;;;;;;;6.57;2.30;;;;;;;;;;5015276;28;20096;-60
2022/05/13 02:12:05;;;;;;;6.85;2.90;;;;;;;;;;5022149;28;20038;-60
2022/05/13 02:14:31;;;;;;;6.95;2.67;;;;;;;;;;5016352;28;20073;-59
2022/05/13 02:16:57;;;;;;;8.20;2.75;;;;;;;;;;5024289;28;20069;-60
2022/05/13 02:19:23;;;;;;;5.03;2.72;;;;;;;;;;5033112;28;20037;-60
2022/05/13 02:21:49;;;;;;;5.88;2.75;;;;;;;;;;5015377;28;20045;-60
2022/05/13 02:24:15;;;;;;;5.63;2.70;;;;;;;;;;5027255;28;20126;-60
2022/05/13 02:26:41;;;;;;;5.72;2.17;;;;;;;;;;5025926;28;20049;-60
2022/05/13 02:29:07;;;;;;;7.57;2.88;;;;;;;;;;5011723;28;20076;-60
2022/05/13 02:31:34;;;;;;;6.28;2.83;;;;;;;;;;5013413;28;20107;-60
2022/05/13 02:34:00;;;;;;;8.93;2.35;;;;;;;;;;5021952;28;20389;-60
2022/05/13 02:36:26;;;;;;;9.73;2.78;;;;;;;;;;5024667;28;20041;-60
2022/05/13 02:38:53;;;;;;;6.18;2.65;;;;;;;;;;5016665;28;20064;-60
2022/05/13 02:41:19;;;;;;;7.40;2.70;;;;;;;;;;5003330;28;20038;-60
2022/05/13 02:43:46;;;;;;;5.43;2.80;;;;;;;;;;5024445;28;20046;-60
2022/05/13 02:46:14;;;;;;;10.77;3.30;;;;;;;;;;5022269;28;20087;-60
2022/05/13 02:48:40;;;;;;;5.93;2.85;;;;;;;;;;5014300;28;20037;-60
2022/05/13 02:51:07;;;;;;;7.70;2.80;;;;;;;;;;4996204;28;20042;-60
2022/05/13 02:53:33;;;;;;;6.43;2.63;;;;;;;;;;5020487;28;20046;-60
2022/05/13 02:55:59;;;;;;;6.90;2.80;;;;;;;;;;5020591;28;20030;-60
2022/05/13 02:58:25;;;;;;;7.53;2.70;;;;;;;;;;5020882;28;20038;-60
2022/05/13 03:00:51;;;;;;;5.68;3.03;;;;;;;;;;5007253;28;20398;-60
2022/05/13 03:03:17;;;;;;;8.60;3.42;;;;;;;;;;5029514;22;20133;-59
2022/05/13 03:05:43;;;;;;;8.88;3.00;;;;;;;;;;5018567;28;20504;-58
2022/05/13 03:08:09;;;;;;;6.00;2.60;;;;;;;;;;5014791;28;20125;-58
2022/05/13 03:10:36;;;;;;;7.72;2.90;;;;;;;;;;5005610;28;20607;-58
2022/05/13 03:13:03;;;;;;;7.60;2.90;;;;;;;;;;5020255;28;20042;-59
2022/05/13 03:15:29;;;;;;;8.13;3.28;;;;;;;;;;5008516;28;20037;-59
2022/05/13 03:17:55;;;;;;;6.22;2.58;;;;;;;;;;5019293;28;20038;-59
2022/05/13 03:20:22;;;;;;;9.75;3.00;;;;;;;;;;5030131;28;20072;-59
2022/05/13 03:22:49;;;;;;;6.78;2.70;;;;;;;;;;5013765;28;20037;-58
2022/05/13 03:25:15;;;;;;;7.80;2.85;;;;;;;;;;5020207;28;20040;-58
2022/05/13 03:27:42;;;;;;;5.70;2.50;;;;;;;;;;5015660;28;20061;-58
2022/05/13 03:30:09;;;;;;;8.13;2.53;;;;;;;;;;5010064;28;20401;-58
2022/05/13 03:32:35;;;;;;;5.80;2.70;;;;;;;;;;5008774;28;20029;-59
2022/05/13 03:35:02;;;;;;;9.02;2.78;;;;;;;;;;5027675;28;20614;-58
2022/05/13 03:37:28;;;;;;;8.85;2.50;;;;;;;;;;5015920;28;20094;-59
2022/05/13 03:39:54;;;;;;;7.75;2.30;;;;;;;;;;5012152;28;20438;-58
2022/05/13 03:42:22;;;;;;;10.30;3.13;;;;;;;;;;5013707;28;20038;-59
2022/05/13 03:44:48;;;;;;;5.13;2.53;;;;;;;;;;5017639;28;20045;-58
2022/05/13 03:47:14;;;;;;;8.05;2.38;;;;;;;;;;5030829;28;20388;-59
2022/05/13 03:49:40;;;;;;;4.18;2.20;;;;;;;;;;5009043;28;20129;-59
2022/05/13 03:52:06;;;;;;;9.02;2.58;;;;;;;;;;5009394;28;20042;-59
2022/05/13 03:54:32;;;;;;;7.10;2.92;;;;;;;;;;5012604;28;20045;-59
2022/05/13 03:56:58;;;;;;;8.80;2.70;;;;;;;;;;5005546;28;20038;-59
2022/05/13 03:59:24;;;;;;;7.15;2.63;;;;;;;;;;5008434;28;20049;-59
2022/05/13 04:01:50;;;;;;;10.15;2.88;;;;;;;;;;5009205;28;20050;-59
2022/05/13 04:04:20;;;;;;;13.10;3.33;;;;;;;;;;5004892;28;20041;-58
2022/05/13 04:09:31;;;;;;;8.15;3.03;;;;;;;;;;5011594;28;20042;-58
2022/05/13 04:17:26;;;;;;;11.80;2.90;;;;;;;;;;5009286;28;20041;-59
2022/05/13 04:19:52;;;;;;;11.45;3.25;;;;;;;;;;5011525;28;20042;-59
2022/05/13 04:22:19;;;;;;;6.93;2.65;;;;;;;;;;5010164;28;20092;-59
2022/05/13 04:24:45;;;;;;;9.60;3.08;;;;;;;;;;5011606;28;20139;-58
2022/05/13 04:27:11;;;;;;;12.13;2.95;;;;;;;;;;4997646;28;20484;-59
2022/05/13 04:29:37;;;;;;;7.75;2.90;;;;;;;;;;5026374;28;20092;-59
2022/05/13 04:32:03;;;;;;;12.77;3.10;;;;;;;;;;5009872;28;20042;-58
2022/05/13 04:34:29;;;;;;;11.57;3.00;;;;;;;;;;5012214;28;20073;-59
2022/05/13 04:36:55;;;;;;;8.43;2.78;;;;;;;;;;5004135;28;20046;-58
2022/05/13 04:39:21;;;;;;;8.75;3.03;;;;;;;;;;5010046;28;20113;-58
2022/05/13 04:44:32;;;;;;;11.15;3.45;;;;;;;;;;5007779;28;20400;-59
2022/05/13 04:46:58;;;;;;;10.18;3.15;;;;;;;;;;5010144;28;20050;-59
2022/05/13 04:49:24;;;;;;;9.40;3.25;;;;;;;;;;5020132;28;20107;-59
2022/05/13 04:51:50;;;;;;;11.80;3.60;;;;;;;;;;5013213;28;20038;-58
2022/05/13 04:54:16;;;;;;;11.55;3.80;;;;;;;;;;5019777;28;20543;-58
2022/05/13 04:56:42;;;;;;;8.93;3.67;;;;;;;;;;5009243;28;20033;-58
2022/05/13 04:59:08;;;;;;;12.48;4.57;;;;;;;;;;5027892;28;20117;-58
2022/05/13 05:01:34;;;;;;;13.45;3.70;;;;;;;;;;5019692;28;20038;-58
2022/05/13 05:04:00;;;;;;;13.90;3.20;;;;;;;;;;5019460;28;20052;-58
2022/05/13 05:06:26;;;;;;;11.23;3.45;;;;;;;;;;5000670;28;20049;-58
2022/05/13 05:08:53;;;;;;;8.93;3.60;;;;;;;;;;5013932;28;20084;-58
2022/05/13 05:11:19;;;;;;;16.27;3.60;;;;;;;;;;5017052;28;20041;-58
2022/05/13 05:13:47;;;;;;;15.65;3.88;;;;;;;;;;5019264;28;20034;-58
2022/05/13 05:16:15;;;;;;;11.23;3.75;;;;;;;;;;5010120;28;20061;-58
2022/05/13 05:18:42;;;;;;;10.50;3.97;;;;;;;;;;5021097;28;20041;-58
2022/05/13 05:21:09;;;;;;;12.30;3.95;;;;;;;;;;5013280;28;20042;-59
2022/05/13 05:23:36;;;;;;;12.15;3.85;;;;;;;;;;5018872;28;20414;-59
2022/05/13 05:26:02;;;;;;;12.95;3.45;;;;;;;;;;5002979;28;20050;-58
2022/05/13 05:28:29;;;;;;;15.15;4.15;;;;;;;;;;5013672;28;20038;-58
2022/05/13 05:30:55;;;;;;;11.00;3.80;;;;;;;;;;5017470;28;20500;-58
2022/05/13 05:33:22;;;;;;;11.10;3.90;;;;;;;;;;5020200;28;20088;-59
2022/05/13 05:35:48;;;;;;;12.75;4.10;;;;;;;;;;5003457;28;20396;-58
2022/05/13 05:38:14;;;;;;;16.55;4.53;;;;;;;;;;5010292;28;20046;-58
2022/05/13 05:40:40;;;;;;;16.35;4.47;;;;;;;;;;5021714;28;20045;-59
2022/05/13 05:43:10;;;;;;;12.90;4.60;;;;;;;;;;5021586;28;20030;-58
2022/05/13 05:45:38;;;;;;;16.48;4.35;;;;;;;;;;5007455;28;20046;-58
2022/05/13 05:48:04;;;;;;;16.05;4.72;;;;;;;;;;5007696;28;20530;-59
2022/05/13 05:50:30;;;;;;;14.23;4.70;;;;;;;;;;5013279;28;20085;-58
2022/05/13 05:52:56;;;;;;;15.38;4.38;;;;;;;;;;5009887;28;20037;-59
2022/05/13 05:58:10;;;;;;;13.18;4.22;;;;;;;;;;5003473;28;20484;-59
2022/05/13 06:00:41;;;;;;;12.65;4.55;;;;;;;;;;5021454;28;20068;-59
2022/05/13 06:03:07;;;;;;;22.92;5.03;;;;;;;;;;5015589;28;20436;-59
2022/05/13 06:05:34;;;;;;;12.68;4.68;;;;;;;;;;5014878;28;20092;-59
2022/05/13 06:08:01;;;;;;;13.68;4.72;;;;;;;;;;5014241;28;20030;-59
2022/05/13 06:10:28;;;;;;;14.73;4.50;;;;;;;;;;5007215;28;20053;-59
2022/05/13 06:12:54;;;;;;;14.30;4.90;;;;;;;;;;5027471;28;20091;-59
2022/05/13 06:15:21;;;;;;;18.20;4.63;;;;;;;;;;5015464;28;20034;-59
2022/05/13 06:17:48;;;;;;;15.48;4.82;;;;;;;;;;5014118;28;20487;-59
2022/05/13 06:20:15;;;;;;;16.40;4.65;;;;;;;;;;5016983;28;20522;-58
2022/05/13 06:22:41;;;;;;;11.50;4.75;;;;;;;;;;5016102;28;20113;-59
2022/05/13 06:25:08;;;;;;;14.40;4.63;;;;;;;;;;5025952;28;20099;-60
2022/05/13 06:27:34;;;;;;;13.75;5.13;;;;;;;;;;5017883;28;20076;-59
2022/05/13 06:30:00;;;;;;;12.65;4.60;;;;;;;;;;5017878;28;20030;-59
2022/05/13 06:32:26;;;;;;;16.42;4.72;;;;;;;;;;5033639;28;20572;-59
2022/05/13 06:34:52;;;;;;;12.65;4.20;;;;;;;;;;5018168;28;20049;-59
2022/05/13 06:37:18;;;;;;;12.45;4.15;;;;;;;;;;5011454;28;20050;-59
2022/05/13 06:39:44;;;;;;;11.88;4.40;;;;;;;;;;5018907;28;20416;-60
2022/05/13 06:42:11;;;;;;;12.98;4.38;;;;;;;;;;5010791;28;20042;-59
2022/05/13 06:44:37;;;;;;;13.23;4.00;;;;;;;;;;5010347;28;20044;-59
2022/05/13 06:47:04;;;;;;;13.45;3.80;;;;;;;;;;5012697;28;20415;-59
2022/05/13 06:49:30;;;;;;;15.50;3.47;;;;;;;;;;5008037;28;20077;-60
2022/05/13 06:51:56;;;;;;;12.65;2.80;;;;;;;;;;5017373;28;20065;-59
2022/05/13 06:54:22;;;;;;;10.77;2.85;;;;;;;;;;5012838;28;20062;-59
2022/05/13 06:56:54;;;;;;;7.18;2.30;;;;;;;;;;5021660;28;21736;-59
2022/05/13 06:59:20;;;;;;;7.32;2.30;;;;;;;;;;5011109;28;20507;-59
2022/05/13 07:01:46;;;;;;;6.07;2.63;;;;;;;;;;5017436;28;20038;-59
2022/05/13 07:04:12;;;;;;;6.70;2.33;;;;;;;;;;5006110;28;20092;-59
2022/05/13 07:06:39;;;;;;;7.85;2.40;;;;;;;;;;5012788;28;20037;-59
2022/05/13 07:09:05;;;;;;;8.98;2.60;;;;;;;;;;5021278;28;20040;-59
2022/05/13 07:11:31;;;;;;;11.90;2.50;;;;;;;;;;5012153;28;20108;-59
2022/05/13 07:13:57;;;;;;;7.85;2.63;;;;;;;;;;5022742;28;20045;-59
2022/05/13 07:16:23;;;;;;;11.38;2.75;;;;;;;;;;5012708;28;20418;-59
2022/05/13 07:18:49;;;;;;;6.93;2.88;;;;;;;;;;5012627;28;20038;-59
2022/05/13 07:21:15;;;;;;;8.63;2.90;;;;;;;;;;5009557;28;20033;-59
2022/05/13 07:23:41;;;;;;;6.68;2.35;;;;;;;;;;5012483;28;20451;-59
2022/05/13 07:26:08;;;;;;;4.93;2.13;;;;;;;;;;5024383;28;20037;-59
2022/05/13 07:28:35;;;;;;;6.88;2.60;;;;;;;;;;4994391;28;20080;-59
2022/05/13 07:31:01;;;;;;;8.10;2.83;;;;;;;;;;5003229;28;20107;-59
2022/05/13 07:33:30;;;;;;;5.50;1.77;;;;;;;;;;5009607;28;20095;-59
2022/05/13 07:35:56;;;;;;;6.57;1.98;;;;;;;;;;5011937;28;20053;-59
2022/05/13 07:38:22;;;;;;;13.57;2.53;;;;;;;;;;5009953;28;21820;-59
2022/05/13 07:43:32;;;;;;;5.00;1.88;;;;;;;;;;5004712;28;20451;-59
2022/05/13 07:45:58;;;;;;;10.05;2.42;;;;;;;;;;5019413;28;20480;-59
2022/05/13 07:48:25;;;;;;;8.73;2.00;;;;;;;;;;5010385;28;20050;-59
2022/05/13 07:50:52;;;;;;;7.60;2.15;;;;;;;;;;5008897;28;20041;-59
2022/05/13 07:53:18;;;;;;;8.35;2.38;;;;;;;;;;5013425;28;20042;-63
2022/05/13 07:55:44;;;;;;;8.00;2.10;;;;;;;;;;5010917;28;20037;-64
2022/05/13 07:58:10;;;;;;;9.25;2.80;;;;;;;;;;5012671;28;20029;-64
2022/05/13 08:00:38;;;;;;;7.88;1.77;;;;;;;;;;5017944;28;20038;-64
2022/05/13 08:03:14;;;;;;;10.60;2.38;;;;;;;;;;5018728;28;20543;-64
2022/05/13 08:05:44;;;;;;;10.35;2.20;;;;;;;;;;5021312;28;20064;-64
2022/05/13 08:08:18;;;;;;;5.22;1.80;;;;;;;;;;5011887;28;20484;-64
2022/05/13 08:10:46;;;;;;;8.07;2.20;;;;;;;;;;5012862;28;20038;-64
2022/05/13 08:13:12;;;;;;;5.93;1.90;;;;;;;;;;5019194;28;20387;-64
2022/05/13 08:15:38;;;;;;;6.88;1.70;;;;;;;;;;5020682;28;20034;-64
2022/05/13 08:18:04;;;;;;;7.20;2.47;;;;;;;;;;5012430;28;20045;-64
2022/05/13 08:20:31;;;;;;;6.97;1.85;;;;;;;;;;4995105;28;20046;-64
2022/05/13 08:22:57;;;;;;;8.00;1.70;;;;;;;;;;5019427;28;20048;-64
2022/05/13 08:25:23;;;;;;;5.80;1.90;;;;;;;;;;5011909;28;20496;-64
2022/05/13 08:27:49;;;;;;;10.45;1.75;;;;;;;;;;5001817;28;20045;-64
2022/05/13 08:30:16;;;;;;;6.88;1.58;;;;;;;;;;5012649;28;20071;-64
2022/05/13 08:32:43;;;;;;;5.70;1.50;;;;;;;;;;5012022;28;20117;-64
2022/05/13 08:35:09;;;;;;;6.53;1.80;;;;;;;;;;5019415;28;20037;-64
2022/05/13 08:37:46;;;;;;;3.95;1.10;;;;;;;;;;5019940;28;20116;-64
2022/05/13 08:40:31;;;;;;;3.45;1.00;;;;;;;;;;4994954;28;20049;-64
2022/05/13 08:42:58;;;;;;;3.28;1.20;;;;;;;;;;5011318;28;20092;-64
2022/05/13 08:45:24;;;;;;;3.88;1.40;;;;;;;;;;5019698;28;20088;-64
2022/05/13 08:47:50;;;;;;;4.75;1.35;;;;;;;;;;5020123;28;20407;-64
2022/05/13 08:50:20;;;;;;;13.27;1.48;;;;;;;;;;5012027;28;20045;-64
2022/05/13 08:53:08;;;;;;;3.85;1.25;;;;;;;;;;5011183;28;20480;-64
2022/05/13 08:55:40;;;;;;;7.85;1.40;;;;;;;;;;5004943;28;20041;-64
2022/05/13 08:58:08;;;;;;;4.68;1.05;;;;;;;;;;5011629;28;20045;-64
2022/05/13 09:00:51;;;;;;;6.00;1.38;;;;;;;;;;5012119;28;20088;-64
2022/05/13 09:03:19;;;;;;;9.55;1.25;;;;;;;;;;5022967;22;20054;-65
2022/05/13 09:05:49;;;;;;;6.60;1.40;;;;;;;;;;4995805;28;20038;-65
2022/05/13 09:08:15;;;;;;;4.55;1.23;;;;;;;;;;4991494;28;20053;-65
2022/05/13 09:10:48;;;;;;;3.95;1.30;;;;;;;;;;4992336;28;20042;-65
2022/05/13 09:13:18;;;;;;;5.75;1.38;;;;;;;;;;4990676;28;20125;-65
2022/05/13 09:16:04;;;;;;;3.23;1.20;;;;;;;;;;4990927;28;20042;-65
2022/05/13 09:18:34;;;;;;;3.03;1.10;;;;;;;;;;4983900;28;20511;-64
2022/05/13 09:21:13;;;;;;;4.68;1.35;;;;;;;;;;4992540;28;20053;-65
2022/05/13 09:23:39;;;;;;;4.50;1.33;;;;;;;;;;4989779;28;20504;-65
2022/05/13 09:26:13;;;;;;;4.20;1.15;;;;;;;;;;4992295;28;20050;-65
2022/05/13 09:28:58;;;;;;;3.65;1.30;;;;;;;;;;4991752;28;20097;-65
2022/05/13 09:31:27;;;;;;;4.90;1.23;;;;;;;;;;4990598;28;20484;-65
2022/05/13 09:33:53;;;;;;;3.83;1.15;;;;;;;;;;4990373;28;20034;-64
2022/05/13 09:36:22;;;;;;;6.88;1.58;;;;;;;;;;4991838;28;20046;-65
2022/05/13 09:38:50;;;;;;;3.55;1.58;;;;;;;;;;4995160;28;20039;-65
2022/05/13 09:41:30;;;;;;;5.13;1.58;;;;;;;;;;4995127;28;20113;-65
2022/05/13 09:44:05;;;;;;;4.32;1.30;;;;;;;;;;4990487;28;20582;-65
2022/05/13 09:46:31;;;;;;;6.03;1.42;;;;;;;;;;4986271;28;20038;-65
2022/05/13 09:48:59;;;;;;;4.78;1.33;;;;;;;;;;4990987;28;20048;-65
2022/05/13 09:51:28;;;;;;;2.83;1.35;;;;;;;;;;4994538;28;20121;-64
2022/05/13 09:54:02;;;;;;;4.88;1.08;;;;;;;;;;4994468;28;20488;-65
2022/05/13 09:56:35;;;;;;;5.00;1.30;;;;;;;;;;4995435;28;20062;-65
2022/05/13 09:59:04;;;;;;;5.97;1.42;;;;;;;;;;4994361;28;20089;-65
2022/05/13 10:01:30;;;;;;;6.70;1.50;;;;;;;;;;4987866;28;20042;-65
2022/05/13 10:04:08;;;;;;;5.40;1.42;;;;;;;;;;4992823;28;20042;-65
2022/05/13 10:06:35;;;;;;;5.78;1.55;;;;;;;;;;4991467;28;20058;-65
2022/05/13 10:14:34;;;;;;;2.50;1.60;;;;;;;;;;4991534;28;20038;-65
2022/05/13 10:17:05;;;;;;;4.88;1.40;;;;;;;;;;4995243;28;20039;-65
2022/05/13 10:19:52;;;;;;;6.00;2.08;;;;;;;;;;4993674;28;20026;-64
2022/05/13 10:22:28;;;;;;;7.97;1.40;;;;;;;;;;4992719;28;20400;-64
2022/05/13 10:25:01;;;;;;;6.18;1.95;;;;;;;;;;4994377;28;20046;-64
2022/05/13 10:27:30;;;;;;;6.97;1.98;;;;;;;;;;5001781;28;20042;-64
2022/05/13 10:30:00;;;;;;;4.63;1.85;;;;;;;;;;4993652;28;20039;-65
2022/05/13 10:32:32;;;;;;;5.72;1.38;;;;;;;;;;4993966;28;20038;-61
2022/05/13 10:35:01;;;;;;;5.90;1.40;;;;;;;;;;4994094;28;20037;-61
2022/05/13 10:37:39;;;;;;;6.43;1.63;;;;;;;;;;4994569;28;20046;-61
2022/05/13 10:40:09;;;;;;;8.10;1.40;;;;;;;;;;4993154;28;20507;-61
2022/05/13 10:42:41;;;;;;;5.95;1.23;;;;;;;;;;4993745;28;20540;-61
2022/05/13 10:45:11;;;;;;;5.53;1.40;;;;;;;;;;4993760;28;20104;-61
2022/05/13 10:48:06;;;;;;;4.22;1.23;;;;;;;;;;4993503;28;20034;-61
2022/05/13 10:50:47;;;;;;;2.53;1.10;;;;;;;;;;4975932;28;20050;-61
2022/05/13 10:53:19;;;;;;;5.38;1.25;;;;;;;;;;4993695;28;20404;-61
2022/05/13 10:55:51;;;;;;;5.45;1.70;;;;;;;;;;4993608;28;20038;-61
2022/05/13 10:58:36;;;;;;;7.40;1.30;;;;;;;;;;4993990;28;20045;-61
2022/05/13 11:01:02;;;;;;;7.68;1.60;;;;;;;;;;4986808;28;20424;-61
2022/05/13 11:03:37;;;;;;;6.15;1.50;;;;;;;;;;4993449;28;20042;-61
2022/05/13 11:06:06;;;;;;;4.75;1.90;;;;;;;;;;4990995;28;20069;-61
2022/05/13 11:08:32;;;;;;;8.88;2.25;;;;;;;;;;4994481;28;20088;-61
2022/05/13 11:11:17;;;;;;;6.10;1.90;;;;;;;;;;4986384;28;20461;-61
2022/05/13 11:13:53;;;;;;;7.28;1.77;;;;;;;;;;4993297;28;20045;-61
2022/05/13 11:16:19;;;;;;;6.32;1.88;;;;;;;;;;4994027;28;20085;-61
2022/05/13 11:18:51;;;;;;;9.00;2.30;;;;;;;;;;4994290;28;20069;-60
2022/05/13 11:21:17;;;;;;;4.40;1.50;;;;;;;;;;4991250;28;20568;-61
2022/05/13 11:26:47;;;;;;;11.43;1.98;;;;;;;;;;4987332;28;20038;-61
2022/05/13 11:29:22;;;;;;;4.57;2.00;;;;;;;;;;4991443;28;20439;-61
2022/05/13 11:31:55;;;;;;;6.53;1.80;;;;;;;;;;4989735;28;20034;-61
2022/05/13 11:34:31;;;;;;;5.70;1.40;;;;;;;;;;4993215;28;20046;-61
2022/05/13 11:37:02;;;;;;;8.60;1.63;;;;;;;;;;4993641;28;20554;-61
2022/05/13 11:39:47;;;;;;;5.15;1.60;;;;;;;;;;4989291;28;20113;-61
2022/05/13 11:42:19;;;;;;;5.65;1.60;;;;;;;;;;4991151;28;20045;-61
2022/05/13 11:45:02;;;;;;;12.15;2.17;;;;;;;;;;4991361;28;20121;-61
2022/05/13 11:47:44;;;;;;;5.10;1.95;;;;;;;;;;4992329;28;20046;-60
2022/05/13 11:50:11;;;;;;;10.23;2.38;;;;;;;;;;4988565;28;21089;-60
2022/05/13 11:52:44;;;;;;;6.07;1.80;;;;;;;;;;4992200;28;20046;-61
2022/05/13 11:55:14;;;;;;;7.20;1.73;;;;;;;;;;4987007;28;20045;-60
2022/05/13 11:57:45;;;;;;;6.78;1.80;;;;;;;;;;4991412;28;20403;-61
2022/05/13 12:00:30;;;;;;;7.75;1.85;;;;;;;;;;4988698;28;20045;-60
2022/05/13 12:03:05;;;;;;;9.50;2.22;;;;;;;;;;4991206;28;20038;-61
2022/05/13 12:05:33;;;;;;;6.57;2.00;;;;;;;;;;4990779;28;20089;-60
2022/05/13 12:08:02;;;;;;;8.68;2.45;;;;;;;;;;4991470;28;20065;-61
2022/05/13 12:10:45;;;;;;;9.35;2.30;;;;;;;;;;4986685;28;20120;-60
2022/05/13 12:13:22;;;;;;;4.40;1.98;;;;;;;;;;4986552;28;20038;-60
2022/05/13 12:16:03;;;;;;;5.80;2.20;;;;;;;;;;4986553;28;20041;-60
2022/05/13 12:18:29;;;;;;;;;;;;;;;;;;4988447;28;20030;-60
2022/05/13 12:20:58;;;;;;;7.65;1.95;;;;;;;;;;4989832;28;19921;-60
2022/05/13 12:23:25;;;;;;;8.80;2.08;;;;;;;;;;4990301;28;20042;-60
2022/05/13 12:25:58;;;;;;;4.57;1.60;;;;;;;;;;4987143;28;20042;-61
2022/05/13 12:28:29;;;;;;;6.15;1.55;;;;;;;;;;4988773;28;20057;-60
2022/05/13 12:30:55;;;;;;;7.72;1.95;;;;;;;;;;4990421;28;20129;-60
2022/05/13 12:33:23;;;;;;;6.72;1.80;;;;;;;;;;4990949;28;20128;-61
2022/05/13 12:38:57;;;;;;;5.25;1.50;;;;;;;;;;4992163;28;20038;-60
2022/05/13 12:41:24;;;;;;;7.97;1.83;;;;;;;;;;4991169;28;20126;-60
2022/05/13 12:44:04;;;;;;;4.47;1.30;;;;;;;;;;4986695;28;20042;-61
2022/05/13 12:46:47;;;;;;;5.63;1.55;;;;;;;;;;4990789;28;20053;-60
2022/05/13 12:49:13;;;;;;;6.57;1.40;;;;;;;;;;4990952;28;20069;-60
2022/05/13 12:51:46;;;;;;;8.10;1.52;;;;;;;;;;4986322;28;20070;-60
2022/05/13 12:54:13;;;;;;;6.13;1.50;;;;;;;;;;4988874;28;20232;-60
2022/05/13 12:56:44;;;;;;;5.55;1.45;;;;;;;;;;4988245;28;20030;-61
2022/05/13 12:59:15;;;;;;;7.53;1.40;;;;;;;;;;4988203;28;20404;-61
2022/05/13 13:01:45;;;;;;;4.85;1.42;;;;;;;;;;4991997;28;20411;-61
2022/05/13 13:04:13;;;;;;;5.85;1.30;;;;;;;;;;4989830;28;20555;-61
2022/05/13 13:06:44;;;;;;;7.53;1.60;;;;;;;;;;4989528;28;20058;-61
2022/05/13 13:09:19;;;;;;;5.57;1.23;;;;;;;;;;4986331;28;20049;-61
2022/05/13 13:11:50;;;;;;;5.85;1.98;;;;;;;;;;4983907;28;20543;-61
2022/05/13 13:14:18;;;;;;;6.32;1.35;;;;;;;;;;4991110;28;20498;-61
2022/05/13 13:17:19;;;;;;;7.60;1.30;;;;;;;;;;4987962;28;20062;-61
2022/05/13 13:19:46;;;;;;;5.93;1.52;;;;;;;;;;4976371;28;20520;-61
2022/05/13 13:22:12;;;;;;;6.35;1.20;;;;;;;;;;4989657;28;20440;-61
2022/05/13 13:24:39;;;;;;;5.38;1.52;;;;;;;;;;4991342;28;20096;-61
2022/05/13 13:27:14;;;;;;;4.13;1.10;;;;;;;;;;4991256;28;20428;-61
2022/05/13 13:29:41;;;;;;;6.22;1.75;;;;;;;;;;5002842;28;20552;-61
2022/05/13 13:32:12;;;;;;;7.35;1.63;;;;;;;;;;4990995;28;20039;-61
2022/05/13 13:34:48;;;;;;;4.68;1.30;;;;;;;;;;4990877;28;20536;-61
2022/05/13 13:37:15;;;;;;;6.63;1.20;;;;;;;;;;4991887;28;20046;-61
2022/05/13 13:39:41;;;;;;;8.00;1.38;;;;;;;;;;4987583;28;20104;-61
2022/05/13 13:42:09;;;;;;;7.63;1.98;;;;;;;;;;4990283;28;20070;-61
2022/05/13 13:44:36;;;;;;;8.52;1.58;;;;;;;;;;4991428;28;20440;-61
2022/05/13 13:47:02;;;;;;;7.47;1.50;;;;;;;;;;4991763;28;20045;-61
2022/05/13 13:49:39;;;;;;;4.18;1.27;;;;;;;;;;4994506;28;20100;-61
2022/05/13 13:52:11;;;;;;;4.18;1.38;;;;;;;;;;4993597;28;20045;-61
2022/05/13 13:54:42;;;;;;;5.07;1.90;;;;;;;;;;4989914;28;20145;-61
2022/05/13 13:57:08;;;;;;;;;;;;;;;;;;4987494;28;20036;-61
2022/05/13 13:59:41;;;;;;;5.82;1.73;;;;;;;;;;4991718;28;19917;-61
2022/05/13 14:02:08;;;;;;;4.85;1.60;;;;;;;;;;4990907;28;20062;-61
2022/05/13 14:04:34;;;;;;;7.93;1.80;;;;;;;;;;4989751;28;20073;-61
2022/05/13 14:07:02;;;;;;;4.80;1.92;;;;;;;;;;4991203;28;20038;-61
2022/05/13 14:09:38;;;;;;;6.47;1.63;;;;;;;;;;4991813;28;20449;-61
2022/05/13 14:12:05;;;;;;;6.43;1.52;;;;;;;;;;4990960;28;20117;-61
2022/05/13 14:14:32;;;;;;;9.43;1.75;;;;;;;;;;4987999;28;20122;-61
2022/05/13 14:17:01;;;;;;;7.10;1.58;;;;;;;;;;4989956;28;20556;-61
2022/05/13 14:19:28;;;;;;;5.63;1.40;;;;;;;;;;4990825;28;20084;-61
2022/05/13 14:21:59;;;;;;;7.93;1.55;;;;;;;;;;4988671;28;20044;-61
2022/05/13 14:24:33;;;;;;;5.38;1.40;;;;;;;;;;4992157;28;20050;-62
2022/05/13 14:27:00;;;;;;;8.43;1.60;;;;;;;;;;4989671;28;20073;-61
2022/05/13 14:29:31;;;;;;;5.03;1.40;;;;;;;;;;4991689;28;20049;-61
2022/05/13 14:32:03;;;;;;;5.60;1.88;;;;;;;;;;4986095;28;20097;-62
2022/05/13 14:34:29;;;;;;;4.28;1.33;;;;;;;;;;4993787;28;20389;-61
2022/05/13 14:36:56;;;;;;;8.13;1.50;;;;;;;;;;4992746;28;20038;-61
2022/05/13 14:42:18;;;;;;;8.52;1.77;;;;;;;;;;4993817;28;20046;-61
2022/05/13 14:44:45;;;;;;;5.57;1.73;;;;;;;;;;4988865;28;20035;-62
2022/05/13 14:47:27;;;;;;;5.07;1.30;;;;;;;;;;4990368;28;20031;-61
2022/05/13 14:49:54;;;;;;;4.25;1.30;;;;;;;;;;4994103;28;20034;-61
2022/05/13 14:52:27;;;;;;;4.53;1.38;;;;;;;;;;4992667;28;20038;-61
2022/05/13 14:54:57;;;;;;;3.90;1.30;;;;;;;;;;4986243;28;20058;-61
2022/05/13 14:57:24;;;;;;;6.32;1.40;;;;;;;;;;4988824;28;20393;-61
2022/05/13 14:59:57;;;;;;;5.40;1.50;;;;;;;;;;4994555;28;20034;-61
2022/05/13 15:02:31;;;;;;;6.38;1.52;;;;;;;;;;4993259;28;20053;-61
2022/05/13 15:05:05;;;;;;;4.85;1.45;;;;;;;;;;5021006;23;20046;-62
2022/05/13 15:07:38;;;;;;;5.13;1.20;;;;;;;;;;5004589;28;20042;-62
2022/05/13 15:10:14;;;;;;;8.20;1.58;;;;;;;;;;5013030;28;20507;-59
2022/05/13 15:12:41;;;;;;;6.05;1.40;;;;;;;;;;5012881;28;20037;-59
2022/05/13 15:15:08;;;;;;;5.13;1.50;;;;;;;;;;5012615;28;20113;-59
2022/05/13 15:17:36;;;;;;;4.53;1.33;;;;;;;;;;5011166;28;20049;-59
2022/05/13 15:20:03;;;;;;;6.07;1.45;;;;;;;;;;5013042;28;20090;-59
2022/05/13 15:22:30;;;;;;;5.93;1.60;;;;;;;;;;5010593;28;20451;-60